sensor_id;sensor_type;location;lat;lon;timestamp;P1;P2;P0
58740;PMS7003;44512;53.046;18.604;2023-02-01T00:04:08;8;1;1
58740;PMS7003;44512;53.046;18.604;2023-02-01T00:14:37;4;1;0
58740;PMS7003;44512;53.046;18.604;2023-02-01T00:25:05;3;2;1
58740;PMS7003;44512;53.046;18.604;2023-02-01T00:35:33;3;2;1
58740;PMS7003;44512;53.046;18.604;2023-02-01T00:46:01;5;1;0
58740;PMS7003;44512;53.046;18.604;2023-02-01T00:56:30;1;1;0
58740;PMS7003;44512;53.046;18.604;2023-02-01T01:06:58;0;0;0
58740;PMS7003;44512;53.046;18.604;2023-02-01T01:17:27;3;1;1
58740;PMS7003;44512;53.046;18.604;2023-02-01T01:27:55;2;1;0
58740;PMS7003;44512;53.046;18.604;2023-02-01T01:38:23;2;0;0
58740;PMS7003;44512;53.046;18.604;2023-02-01T01:48:57;3;1;1
58740;PMS7003;44512;53.046;18.604;2023-02-01T01:59:21;2;2;1
58740;PMS7003;44512;53.046;18.604;2023-02-01T02:09:48;3;2;1
58740;PMS7003;44512;53.046;18.604;2023-02-01T02:30:52;2;1;1
58740;PMS7003;44512;53.046;18.604;2023-02-01T03:02:10;2;1;1
58740;PMS7003;44512;53.046;18.604;2023-02-01T03:12:39;1;0;0
58740;PMS7003;44512;53.046;18.604;2023-02-01T03:23:07;1;1;1
58740;PMS7003;44512;53.046;18.604;2023-02-01T03:33:36;3;0;0
58740;PMS7003;44512;53.046;18.604;2023-02-01T03:44:06;1;1;1
58740;PMS7003;44512;53.046;18.604;2023-02-01T03:54:32;3;1;0
58740;PMS7003;44512;53.046;18.604;2023-02-01T04:05:01;1;0;0
58740;PMS7003;44512;53.046;18.604;2023-02-01T04:15:29;0;0;0
58740;PMS7003;44512;53.046;18.604;2023-02-01T04:26:01;3;1;1
58740;PMS7003;44512;53.046;18.604;2023-02-01T04:36:26;1;0;0
58740;PMS7003;44512;53.046;18.604;2023-02-01T04:46:54;2;1;0
58740;PMS7003;44512;53.046;18.604;2023-02-01T04:57:23;2;1;0
58740;PMS7003;44512;53.046;18.604;2023-02-01T05:07:51;1;1;1
58740;PMS7003;44512;53.046;18.604;2023-02-01T05:18:19;2;1;1
58740;PMS7003;44512;53.046;18.604;2023-02-01T05:28:48;4;3;1
58740;PMS7003;44512;53.046;18.604;2023-02-01T05:39:16;6;3;2
58740;PMS7003;44512;53.046;18.604;2023-02-01T05:49:45;3;1;1
58740;PMS7003;44512;53.046;18.604;2023-02-01T06:00:13;7;3;1
58740;PMS7003;44512;53.046;18.604;2023-02-01T06:10:41;5;3;3
58740;PMS7003;44512;53.046;18.604;2023-02-01T06:21:10;1;1;1
58740;PMS7003;44512;53.046;18.604;2023-02-01T06:31:38;4;1;1
58740;PMS7003;44512;53.046;18.604;2023-02-01T06:42:07;4;2;1
58740;PMS7003;44512;53.046;18.604;2023-02-01T06:52:35;5;2;1
58740;PMS7003;44512;53.046;18.604;2023-02-01T07:03:03;6;3;2
58740;PMS7003;44512;53.046;18.604;2023-02-01T07:13:32;9;7;4
58740;PMS7003;44512;53.046;18.604;2023-02-01T07:24:00;10;5;4
58740;PMS7003;44512;53.046;18.604;2023-02-01T07:34:29;5;4;2
58740;PMS7003;44512;53.046;18.604;2023-02-01T07:44:57;5;3;2
58740;PMS7003;44512;53.046;18.604;2023-02-01T08:05:54;5;3;3
58740;PMS7003;44512;53.046;18.604;2023-02-01T08:16:22;6;3;3
58740;PMS7003;44512;53.046;18.604;2023-02-01T08:26:50;6;4;3
58740;PMS7003;44512;53.046;18.604;2023-02-01T08:37:19;10;7;6
58740;PMS7003;44512;53.046;18.604;2023-02-01T08:47:47;3;1;1
58740;PMS7003;44512;53.046;18.604;2023-02-01T08:58:16;7;2;1
58740;PMS7003;44512;53.046;18.604;2023-02-01T09:08:44;1;1;1
58740;PMS7003;44512;53.046;18.604;2023-02-01T09:19:12;5;4;3
58740;PMS7003;44512;53.046;18.604;2023-02-01T09:34:23;0;0;0
58740;PMS7003;44512;53.046;18.604;2023-02-01T09:44:32;6;3;2
58740;PMS7003;44512;53.046;18.604;2023-02-01T09:54:51;4;4;3
58740;PMS7003;44512;53.046;18.604;2023-02-01T10:05:03;5;4;3
58740;PMS7003;44512;53.046;18.604;2023-02-01T10:25:23;7;4;3
58740;PMS7003;44512;53.046;18.604;2023-02-01T10:35:31;4;3;3
58740;PMS7003;44512;53.046;18.604;2023-02-01T10:45:39;4;3;2
58740;PMS7003;44512;53.046;18.604;2023-02-01T10:55:47;7;5;3
58740;PMS7003;44512;53.046;18.604;2023-02-01T11:05:50;5;3;2
58740;PMS7003;44512;53.046;18.604;2023-02-01T11:15:54;5;4;3
58740;PMS7003;44512;53.046;18.604;2023-02-01T11:26:07;4;4;2
58740;PMS7003;44512;53.046;18.604;2023-02-01T11:36:08;6;5;4
58740;PMS7003;44512;53.046;18.604;2023-02-01T11:46:19;6;4;3
58740;PMS7003;44512;53.046;18.604;2023-02-01T12:47:33;4;4;3
58740;PMS7003;44512;53.046;18.604;2023-02-01T12:57:44;4;2;1
58740;PMS7003;44512;53.046;18.604;2023-02-01T13:18:02;7;5;4
58740;PMS7003;44512;53.046;18.604;2023-02-01T13:28:09;7;7;4
58740;PMS7003;44512;53.046;18.604;2023-02-01T13:58:42;6;5;4
58740;PMS7003;44512;53.046;18.604;2023-02-01T14:08:45;9;8;5
58740;PMS7003;44512;53.046;18.604;2023-02-01T14:18:57;10;6;5
58740;PMS7003;44512;53.046;18.604;2023-02-01T14:29:02;8;6;5
58740;PMS7003;44512;53.046;18.604;2023-02-01T14:49:22;11;8;6
58740;PMS7003;44512;53.046;18.604;2023-02-01T14:59:39;13;8;7
58740;PMS7003;44512;53.046;18.604;2023-02-01T15:10:08;9;8;6
58740;PMS7003;44512;53.046;18.604;2023-02-01T15:20:36;11;8;6
58740;PMS7003;44512;53.046;18.604;2023-02-01T15:31:04;20;14;10
58740;PMS7003;44512;53.046;18.604;2023-02-01T15:41:32;14;10;7
58740;PMS7003;44512;53.046;18.604;2023-02-01T15:52:01;11;8;5
58740;PMS7003;44512;53.046;18.604;2023-02-01T16:12:58;10;7;6
58740;PMS7003;44512;53.046;18.604;2023-02-01T16:23:26;10;7;5
58740;PMS7003;44512;53.046;18.604;2023-02-01T16:33:54;7;5;4
58740;PMS7003;44512;53.046;18.604;2023-02-01T16:44:23;10;9;6
58740;PMS7003;44512;53.046;18.604;2023-02-01T16:54:51;9;6;4
58740;PMS7003;44512;53.046;18.604;2023-02-01T17:05:20;15;9;6
58740;PMS7003;44512;53.046;18.604;2023-02-01T17:15:58;14;9;7
58740;PMS7003;44512;53.046;18.604;2023-02-01T17:26:16;18;13;10
58740;PMS7003;44512;53.046;18.604;2023-02-01T17:36:45;16;10;7
58740;PMS7003;44512;53.046;18.604;2023-02-01T17:47:13;10;7;5
58740;PMS7003;44512;53.046;18.604;2023-02-01T17:57:42;7;6;4
58740;PMS7003;44512;53.046;18.604;2023-02-01T18:08:10;8;6;3
58740;PMS7003;44512;53.046;18.604;2023-02-01T18:18:38;6;3;3
58740;PMS7003;44512;53.046;18.604;2023-02-01T18:29:07;10;5;3
58740;PMS7003;44512;53.046;18.604;2023-02-01T18:39:35;5;5;3
58740;PMS7003;44512;53.046;18.604;2023-02-01T18:50:04;6;6;4
58740;PMS7003;44512;53.046;18.604;2023-02-01T19:00:33;11;8;6
58740;PMS7003;44512;53.046;18.604;2023-02-01T19:11:04;6;6;4
58740;PMS7003;44512;53.046;18.604;2023-02-01T19:21:29;14;12;9
58740;PMS7003;44512;53.046;18.604;2023-02-01T19:31:57;8;7;5
58740;PMS7003;44512;53.046;18.604;2023-02-01T19:42:26;8;7;5
58740;PMS7003;44512;53.046;18.604;2023-02-01T19:52:54;6;4;3
58740;PMS7003;44512;53.046;18.604;2023-02-01T20:03:23;12;7;6
58740;PMS7003;44512;53.046;18.604;2023-02-01T20:13:54;14;12;9
58740;PMS7003;44512;53.046;18.604;2023-02-01T20:24:19;20;16;12
58740;PMS7003;44512;53.046;18.604;2023-02-01T20:34:48;18;12;8
58740;PMS7003;44512;53.046;18.604;2023-02-01T20:45:16;17;11;8
58740;PMS7003;44512;53.046;18.604;2023-02-01T20:55:45;18;13;9
58740;PMS7003;44512;53.046;18.604;2023-02-01T21:06:13;14;10;8
58740;PMS7003;44512;53.046;18.604;2023-02-01T21:16:41;11;7;5
58740;PMS7003;44512;53.046;18.604;2023-02-01T21:27:10;9;7;6
58740;PMS7003;44512;53.046;18.604;2023-02-01T21:37:38;15;12;8
58740;PMS7003;44512;53.046;18.604;2023-02-01T21:48:07;6;6;4
58740;PMS7003;44512;53.046;18.604;2023-02-01T21:58:36;10;7;5
58740;PMS7003;44512;53.046;18.604;2023-02-01T22:09:04;6;6;5
58740;PMS7003;44512;53.046;18.604;2023-02-01T22:19:32;12;7;4
58740;PMS7003;44512;53.046;18.604;2023-02-01T22:30:00;10;7;4
58740;PMS7003;44512;53.046;18.604;2023-02-01T22:40:29;7;5;3
58740;PMS7003;44512;53.046;18.604;2023-02-01T22:50:57;8;5;4
58740;PMS7003;44512;53.046;18.604;2023-02-01T23:01:26;8;6;4
58740;PMS7003;44512;53.046;18.604;2023-02-01T23:11:54;13;7;6
58740;PMS7003;44512;53.046;18.604;2023-02-01T23:22:22;4;3;2
58740;PMS7003;44512;53.046;18.604;2023-02-01T23:32:51;7;5;3
58740;PMS7003;44512;53.046;18.604;2023-02-01T23:43:19;9;3;3
58740;PMS7003;44512;53.046;18.604;2023-02-01T23:53:48;6;5;3
